Time;durP1;ratioP1;P1;durP2;ratioP2;P2;SDS_P1;SDS_P2;PMS_P1;PMS_P2;Temp;Humidity;BMP_temperature;BMP_pressure;BME280_temperature;BME280_humidity;BME280_pressure;Samples;Min_cycle;Max_cycle;Signal;HPM_P1;HPM_P2
2020/12/14 00:02:17;;;;;;;10.77;7.47;;;;;;;3.00;100.00;100030.47;631661;226;24843;-76
2020/12/14 00:04:45;;;;;;;11.67;7.30;;;;;;;3.00;100.00;100034.31;641907;221;25079;-76
2020/12/14 00:07:12;;;;;;;12.17;7.67;;;;;;;3.21;100.00;100038.48;631388;225;24832;-76
2020/12/14 00:09:40;;;;;;;9.47;7.77;;;;;;;3.31;100.00;100043.37;647247;221;25400;-76
2020/12/14 00:12:10;;;;;;;9.80;7.80;;;;;;;2.95;100.00;100029.92;638702;221;24817;-76
2020/12/14 00:14:36;;;;;;;9.90;6.77;;;;;;;2.80;100.00;100036.07;637405;223;24811;-76
2020/12/14 00:17:04;;;;;;;9.77;7.00;;;;;;;2.98;100.00;100034.42;647700;220;24812;-76
2020/12/14 00:19:31;;;;;;;11.33;8.27;;;;;;;3.27;100.00;100031.20;641738;220;24814;-76
2020/12/14 00:21:59;;;;;;;11.20;8.83;;;;;;;3.36;100.00;100020.73;639994;222;24824;-75
2020/12/14 00:24:27;;;;;;;10.00;7.87;;;;;;;3.24;100.00;100016.45;643076;222;24827;-75
2020/12/14 00:26:55;;;;;;;14.10;8.27;;;;;;;3.39;100.00;100015.41;641735;222;29041;-75
2020/12/14 00:29:23;;;;;;;9.03;7.23;;;;;;;3.47;100.00;100016.16;631059;225;24835;-76
2020/12/14 00:31:52;;;;;;;9.57;7.10;;;;;;;3.48;100.00;100010.91;639472;222;27987;-76
2020/12/14 00:34:20;;;;;;;8.57;6.87;;;;;;;3.60;100.00;100007.97;644182;222;24896;-75
2020/12/14 00:36:48;;;;;;;13.00;9.70;;;;;;;3.97;100.00;100001.09;637186;221;33005;-75
2020/12/14 00:39:16;;;;;;;15.70;10.63;;;;;;;4.25;99.63;99995.27;632344;221;32740;-74
2020/12/14 00:41:43;;;;;;;11.07;9.10;;;;;;;3.75;100.00;99999.66;640795;221;26871;-76
2020/12/14 00:44:11;;;;;;;13.47;9.00;;;;;;;3.64;100.00;99990.11;633237;225;24834;-76
2020/12/14 00:46:39;;;;;;;10.17;7.77;;;;;;;3.62;100.00;99982.14;644834;221;24840;-74
2020/12/14 00:49:07;;;;;;;12.23;8.10;;;;;;;3.70;100.00;99982.45;643988;221;25260;-76
2020/12/14 00:51:35;;;;;;;14.73;9.27;;;;;;;3.49;100.00;99977.84;646201;221;24806;-76
2020/12/14 00:54:02;;;;;;;11.27;8.87;;;;;;;3.43;100.00;99986.46;640309;222;24847;-76
2020/12/14 00:56:30;;;;;;;12.17;8.07;;;;;;;3.33;100.00;99990.58;627539;226;25355;-75
2020/12/14 00:58:58;;;;;;;9.43;7.80;;;;;;;3.46;100.00;99998.63;639293;220;32694;-75
2020/12/14 01:01:27;;;;;;;12.67;8.90;;;;;;;3.00;100.00;100009.92;631382;225;24865;-75
2020/12/14 01:03:54;;;;;;;10.67;7.40;;;;;;;2.74;100.00;100024.47;627312;225;24875;-75
2020/12/14 01:06:22;;;;;;;16.00;8.30;;;;;;;2.31;100.00;100029.80;645104;221;24821;-76
2020/12/14 01:08:50;;;;;;;8.13;7.07;;;;;;;2.63;100.00;100026.91;628441;225;24866;-74
2020/12/14 01:11:18;;;;;;;10.60;8.88;;;;;;;3.15;100.00;100020.91;632848;223;32705;-76
2020/12/14 01:13:46;;;;;;;10.28;8.00;;;;;;;3.33;100.00;100024.81;632907;224;32863;-76
2020/12/14 01:16:14;;;;;;;9.17;7.70;;;;;;;3.12;100.00;100030.12;640726;220;24755;-76
2020/12/14 01:18:42;;;;;;;9.57;7.10;;;;;;;3.05;100.00;100021.98;630921;225;24863;-76
2020/12/14 01:21:10;;;;;;;7.63;6.17;;;;;;;3.14;100.00;100011.10;643436;222;24841;-76
2020/12/14 01:23:37;;;;;;;8.57;7.37;;;;;;;3.41;100.00;100014.02;631093;226;24903;-76
2020/12/14 01:26:05;;;;;;;11.00;7.00;;;;;;;3.23;100.00;100021.20;645671;221;24904;-75
2020/12/14 01:28:33;;;;;;;7.13;6.20;;;;;;;3.20;100.00;100018.84;641409;221;27984;-75
2020/12/14 01:31:01;;;;;;;8.23;6.47;;;;;;;3.03;100.00;100006.31;628879;225;25126;-74
2020/12/14 01:33:29;;;;;;;7.90;6.77;;;;;;;2.85;100.00;100015.61;641197;221;32280;-76
2020/12/14 01:35:57;;;;;;;10.00;7.47;;;;;;;2.83;100.00;100012.78;645738;221;24799;-75
2020/12/14 01:38:25;;;;;;;10.30;6.47;;;;;;;2.88;100.00;100019.25;630913;225;24879;-75
2020/12/14 01:40:54;;;;;;;11.77;8.30;;;;;;;2.97;100.00;100023.79;631855;225;24853;-76
2020/12/14 01:43:23;;;;;;;9.93;7.20;;;;;;;2.99;100.00;100024.97;624114;226;24906;-76
2020/12/14 01:45:50;;;;;;;8.53;7.67;;;;;;;3.00;100.00;100025.33;627569;228;24832;-74
2020/12/14 01:48:18;;;;;;;10.40;7.30;;;;;;;3.10;100.00;100030.22;642832;221;24835;-75
2020/12/14 01:50:46;;;;;;;11.13;8.50;;;;;;;2.93;100.00;100035.17;626154;225;24869;-75
2020/12/14 01:53:14;;;;;;;8.70;7.80;;;;;;;2.98;100.00;100033.60;633410;226;26097;-74
2020/12/14 01:55:42;;;;;;;10.63;8.08;;;;;;;3.50;100.00;100026.23;634943;222;32745;-74
2020/12/14 01:58:10;;;;;;;13.80;8.90;;;;;;;3.25;100.00;100039.94;627197;225;23726;-73
2020/12/14 02:00:38;;;;;;;12.33;7.63;;;;;;;3.19;100.00;100037.30;645046;220;24822;-75
2020/12/14 02:03:05;;;;;;;11.15;8.78;;;;;;;3.79;100.00;100033.22;625003;226;32868;-75
2020/12/14 02:05:33;;;;;;;13.90;8.40;;;;;;;3.40;100.00;100020.91;639024;222;23696;-75
2020/12/14 02:08:04;;;;;;;12.00;8.00;;;;;;;3.21;100.00;100023.06;634806;224;24856;-75
2020/12/14 02:10:29;;;;;;;9.40;7.20;;;;;;;3.09;100.00;100020.02;635215;225;26217;-74
2020/12/14 02:12:57;;;;;;;10.60;7.40;;;;;;;3.54;100.00;100009.22;641730;220;32999;-75
2020/12/14 02:15:25;;;;;;;11.60;7.87;;;;;;;3.81;99.09;99990.23;637047;221;32704;-74
2020/12/14 02:17:53;;;;;;;8.20;6.90;;;;;;;3.73;97.66;99986.08;621493;225;32930;-74
2020/12/14 02:20:20;;;;;;;8.53;6.60;;;;;;;3.04;100.00;99992.55;632011;225;23726;-74
2020/12/14 02:22:48;;;;;;;10.63;8.07;;;;;;;3.65;99.33;99985.31;626454;225;32861;-75
2020/12/14 02:25:16;;;;;;;10.30;7.90;;;;;;;3.79;97.72;99976.64;638183;220;32689;-74
2020/12/14 02:27:45;;;;;;;10.85;7.87;;;;;;;3.99;96.29;99970.92;636979;221;32709;-75
2020/12/14 02:30:14;;;;;;;9.50;7.57;;;;;;;3.17;97.87;99979.23;627202;225;23720;-75
2020/12/14 02:32:40;;;;;;;12.70;6.83;;;;;;;2.54;98.52;99994.15;645951;221;24823;-74
2020/12/14 02:35:07;;;;;;;9.53;6.80;;;;;;;2.01;99.87;99999.20;639275;222;24812;-74
2020/12/14 02:37:35;;;;;;;9.97;7.00;;;;;;;1.88;100.00;100000.06;627602;226;24863;-74
2020/12/14 02:40:03;;;;;;;11.90;7.47;;;;;;;1.84;100.00;99994.77;644615;221;24820;-74
2020/12/14 02:42:31;;;;;;;9.40;7.63;;;;;;;1.98;100.00;100003.70;642388;222;24816;-74
2020/12/14 02:44:59;;;;;;;9.27;7.00;;;;;;;2.03;100.00;99992.70;640881;222;24813;-74
2020/12/14 02:47:27;;;;;;;9.53;6.90;;;;;;;2.05;100.00;99983.16;641801;222;24808;-75
2020/12/14 02:49:55;;;;;;;8.53;6.60;;;;;;;2.20;100.00;99981.36;642875;221;24864;-74
2020/12/14 02:52:23;;;;;;;11.12;8.28;;;;;;;2.90;100.00;99967.78;638449;221;32670;-74
2020/12/14 02:54:50;;;;;;;8.57;7.67;;;;;;;2.52;100.00;99968.55;642910;221;23691;-75
2020/12/14 02:57:18;;;;;;;10.80;8.10;;;;;;;2.57;100.00;99972.13;640986;221;24809;-74
2020/12/14 02:59:46;;;;;;;11.30;8.27;;;;;;;2.58;100.00;99969.91;644263;222;24811;-75
2020/12/14 03:02:14;;;;;;;7.43;6.70;;;;;;;2.44;100.00;99964.86;637305;222;24813;-75
2020/12/14 03:04:42;;;;;;;7.60;6.43;;;;;;;2.32;100.00;99973.70;638980;221;24888;-75
2020/12/14 03:07:10;;;;;;;9.13;7.00;;;;;;;2.22;100.00;99967.97;628242;225;25105;-74
2020/12/14 03:09:38;;;;;;;14.00;7.33;;;;;;;2.02;100.00;99966.69;634256;225;27015;-75
2020/12/14 03:12:06;;;;;;;9.20;7.17;;;;;;;1.89;100.00;99967.91;630742;226;24870;-74
2020/12/14 03:14:34;;;;;;;13.07;7.70;;;;;;;1.73;100.00;99970.61;644207;222;26993;-74
2020/12/14 03:17:02;;;;;;;12.17;8.40;;;;;;;1.88;100.00;99975.70;640618;221;24885;-74
2020/12/14 03:19:30;;;;;;;8.00;7.20;;;;;;;1.97;100.00;99972.12;641527;221;24811;-75
2020/12/14 03:21:58;;;;;;;10.90;7.10;;;;;;;1.76;100.00;99962.73;640232;220;24994;-73
2020/12/14 03:24:26;;;;;;;10.67;7.10;;;;;;;1.94;100.00;99959.92;647282;220;24803;-75
2020/12/14 03:26:53;;;;;;;8.97;7.03;;;;;;;1.97;100.00;99952.03;645609;220;24897;-74
2020/12/14 03:29:21;;;;;;;11.80;7.80;;;;;;;2.08;100.00;99949.61;645698;220;24799;-75
2020/12/14 03:31:49;;;;;;;9.53;7.07;;;;;;;2.10;100.00;99950.34;632231;225;27998;-75
2020/12/14 03:34:17;;;;;;;10.50;6.93;;;;;;;2.17;100.00;99950.31;641523;222;24846;-75
2020/12/14 03:36:45;;;;;;;9.80;8.13;;;;;;;2.78;100.00;99943.73;625176;226;32875;-75
2020/12/14 03:39:13;;;;;;;13.87;8.73;;;;;;;2.34;100.00;99949.23;638489;223;23695;-75
2020/12/14 03:41:40;;;;;;;11.43;8.00;;;;;;;2.32;100.00;99957.03;646643;221;24830;-74
2020/12/14 03:44:08;;;;;;;11.33;8.40;;;;;;;1.88;100.00;99960.32;632426;226;28115;-75
2020/12/14 03:46:36;;;;;;;10.30;7.57;;;;;;;1.88;100.00;99959.86;628665;225;28084;-74
2020/12/14 03:49:04;;;;;;;10.83;7.60;;;;;;;1.78;100.00;99969.03;632232;225;24845;-75
2020/12/14 03:51:32;;;;;;;11.33;7.30;;;;;;;1.65;100.00;99971.53;625293;226;24873;-75
2020/12/14 03:54:00;;;;;;;12.03;9.25;;;;;;;2.50;100.00;99972.14;625597;226;32914;-75
2020/12/14 03:56:28;;;;;;;13.50;9.03;;;;;;;2.20;100.00;99966.80;642495;221;23712;-74
2020/12/14 03:58:55;;;;;;;12.13;7.67;;;;;;;2.21;100.00;99974.84;641610;221;24827;-74
2020/12/14 04:01:23;;;;;;;9.50;7.17;;;;;;;2.23;100.00;99972.18;632972;225;24801;-74
2020/12/14 04:03:51;;;;;;;10.40;6.73;;;;;;;2.24;100.00;99982.34;629484;225;24866;-74
2020/12/14 04:06:20;;;;;;;8.70;7.07;;;;;;;2.25;100.00;99977.60;640680;221;24919;-75
2020/12/14 04:08:48;;;;;;;10.57;8.87;;;;;;;2.41;100.00;99980.00;643362;221;24851;-74
2020/12/14 04:11:16;;;;;;;12.40;7.47;;;;;;;2.44;100.00;99972.56;645063;221;24810;-74
2020/12/14 04:13:43;;;;;;;10.20;8.07;;;;;;;2.40;100.00;99962.96;643879;222;24821;-74
2020/12/14 04:16:11;;;;;;;8.07;7.17;;;;;;;2.31;100.00;99972.06;639504;221;24813;-75
2020/12/14 04:18:39;;;;;;;12.70;6.93;;;;;;;2.40;100.00;99977.08;646621;221;24803;-74
2020/12/14 04:21:08;;;;;;;9.70;7.00;;;;;;;2.39;100.00;99979.25;642034;222;24822;-75
2020/12/14 04:23:36;;;;;;;11.03;7.87;;;;;;;2.32;100.00;99967.75;644782;221;24809;-75
2020/12/14 04:26:03;;;;;;;9.45;8.20;;;;;;;2.89;100.00;99964.86;636858;221;32901;-75
2020/12/14 04:28:31;;;;;;;10.73;8.50;;;;;;;2.55;100.00;99964.53;635101;222;23712;-75
2020/12/14 04:31:00;;;;;;;10.33;9.00;;;;;;;2.51;100.00;99968.66;646140;219;24803;-75
2020/12/14 04:33:28;;;;;;;8.43;7.07;;;;;;;2.52;100.00;99963.42;647169;221;24808;-74
2020/12/14 04:35:56;;;;;;;10.93;6.97;;;;;;;2.46;100.00;99959.16;633173;225;24842;-75
2020/12/14 04:38:24;;;;;;;8.97;6.40;;;;;;;2.47;100.00;99962.91;645582;220;24801;-75
2020/12/14 04:40:52;;;;;;;10.30;6.93;;;;;;;2.44;100.00;99964.86;645155;220;24816;-75
2020/12/14 04:43:20;;;;;;;13.90;9.20;;;;;;;2.47;100.00;99968.50;643281;223;24912;-75
2020/12/14 04:45:48;;;;;;;9.77;7.90;;;;;;;2.47;100.00;99972.35;643082;221;24829;-75
2020/12/14 04:48:16;;;;;;;10.93;8.47;;;;;;;2.59;100.00;99966.42;633276;225;24858;-75
2020/12/14 04:50:44;;;;;;;11.50;7.30;;;;;;;2.60;100.00;99961.19;641594;221;24819;-75
2020/12/14 04:53:11;;;;;;;10.63;7.10;;;;;;;2.60;100.00;99963.75;637986;225;25084;-75
2020/12/14 04:55:39;;;;;;;10.43;8.53;;;;;;;3.21;99.30;99958.36;632848;224;33440;-75
2020/12/14 04:58:07;;;;;;;9.27;8.10;;;;;;;2.82;99.58;99960.60;645610;221;24814;-75
2020/12/14 05:00:35;;;;;;;11.90;8.27;;;;;;;2.89;99.70;99954.13;641057;221;27055;-75
2020/12/14 05:03:03;;;;;;;11.10;7.10;;;;;;;2.74;99.50;99958.17;626442;228;24918;-73
2020/12/14 05:05:31;;;;;;;10.60;7.87;;;;;;;2.55;100.00;99963.24;626645;225;24841;-75
2020/12/14 05:07:59;;;;;;;9.40;7.03;;;;;;;2.52;100.00;99960.85;641611;221;24803;-75
2020/12/14 05:10:27;;;;;;;11.50;7.60;;;;;;;2.41;100.00;99957.37;631450;225;26013;-74
2020/12/14 05:12:54;;;;;;;10.73;7.93;;;;;;;2.44;100.00;99963.11;627572;225;24871;-74
2020/12/14 05:15:23;;;;;;;9.53;7.40;;;;;;;2.50;100.00;99964.45;642800;221;24888;-74
2020/12/14 05:17:51;;;;;;;11.80;8.00;;;;;;;2.57;100.00;99961.39;627314;225;25969;-74
2020/12/14 05:20:19;;;;;;;9.60;7.33;;;;;;;2.43;100.00;99958.09;640760;222;27981;-75
2020/12/14 05:22:56;;;;;;;13.87;8.53;;;;;;;2.32;100.00;99960.88;643255;222;24813;-75
2020/12/14 05:25:24;;;;;;;13.47;9.60;;;;;;;2.25;100.00;99962.20;633215;225;24779;-73
2020/12/14 05:28:01;;;;;;;13.67;8.20;;;;;;;2.09;100.00;99962.80;629060;225;26168;-75
2020/12/14 05:30:36;;;;;;;11.27;9.07;;;;;;;2.61;99.64;99955.13;635383;220;32777;-75
2020/12/14 05:33:04;;;;;;;9.90;8.45;;;;;;;2.88;98.94;99960.19;623586;225;32846;-73
2020/12/14 05:35:33;;;;;;;12.73;9.30;;;;;;;2.78;98.36;99968.59;621336;226;34394;-72
2020/12/14 05:38:10;;;;;;;10.13;8.50;;;;;;;3.03;98.38;99962.65;623027;225;32872;-74
2020/12/14 05:40:38;;;;;;;10.80;8.23;;;;;;;2.55;100.00;99972.69;642800;221;23702;-74
2020/12/14 05:43:10;;;;;;;8.27;6.87;;;;;;;2.58;100.00;99981.47;642983;220;24827;-72
2020/12/14 05:45:38;;;;;;;10.73;7.37;;;;;;;2.51;100.00;99978.92;637733;224;24843;-73
2020/12/14 05:48:06;;;;;;;10.05;8.20;;;;;;;2.98;99.07;99979.20;639687;220;33006;-72
2020/12/14 05:50:34;;;;;;;13.43;8.70;;;;;;;2.65;100.00;99977.09;639609;220;24709;-72
2020/12/14 05:53:02;;;;;;;9.27;7.03;;;;;;;2.66;100.00;99984.34;628249;225;27023;-73
2020/12/14 05:55:31;;;;;;;10.07;7.57;;;;;;;2.68;100.00;99983.80;638721;224;24807;-73
2020/12/14 05:57:58;;;;;;;8.00;6.73;;;;;;;2.73;100.00;99971.47;641018;221;26968;-74
2020/12/14 06:00:26;;;;;;;9.80;7.80;;;;;;;2.90;100.00;99974.20;636118;225;24855;-73
2020/12/14 06:02:53;;;;;;;7.87;6.63;;;;;;;3.04;100.00;99969.42;625364;226;24896;-74
2020/12/14 06:05:21;;;;;;;8.57;6.90;;;;;;;3.08;100.00;99967.00;627889;226;28070;-73
2020/12/14 06:07:49;;;;;;;7.37;6.47;;;;;;;3.18;100.00;99964.17;641847;221;25883;-76
2020/12/14 06:10:17;;;;;;;8.40;6.67;;;;;;;3.14;100.00;99967.42;639167;220;24809;-74
2020/12/14 06:12:45;;;;;;;8.10;6.43;;;;;;;2.95;100.00;99966.54;639923;221;24868;-74
2020/12/14 06:15:13;;;;;;;13.57;7.87;;;;;;;2.82;100.00;99972.16;639085;224;24848;-73
2020/12/14 06:17:41;;;;;;;10.70;6.97;;;;;;;2.67;100.00;99968.01;638436;222;24832;-74
2020/12/14 06:20:11;;;;;;;9.13;7.00;;;;;;;2.81;100.00;99974.80;628077;225;24869;-73
2020/12/14 06:22:39;;;;;;;9.70;6.73;;;;;;;2.88;100.00;99976.88;642925;221;24794;-74
2020/12/14 06:25:07;;;;;;;8.97;6.03;;;;;;;3.01;100.00;99978.63;645835;221;24822;-75
2020/12/14 06:27:35;;;;;;;7.00;6.30;;;;;;;2.98;100.00;99976.63;650518;220;24838;-74
2020/12/14 06:30:14;;;;;;;6.23;5.40;;;;;;;2.95;100.00;99979.84;644816;221;24838;-73
2020/12/14 06:32:42;;;;;;;5.57;4.80;;;;;;;3.00;100.00;99982.12;638563;221;27020;-73
2020/12/14 06:35:15;;;;;;;6.80;5.80;;;;;;;3.24;100.00;99976.16;644672;221;24825;-72
2020/12/14 06:37:49;;;;;;;8.10;6.80;;;;;;;3.43;100.00;99975.72;631867;226;29158;-74
2020/12/14 06:40:17;;;;;;;7.27;6.10;;;;;;;3.34;100.00;99982.76;643217;221;24831;-74
2020/12/14 06:42:45;;;;;;;9.43;7.00;;;;;;;3.38;100.00;99985.94;647808;221;24809;-74
2020/12/14 06:45:17;;;;;;;10.70;7.70;;;;;;;3.51;100.00;99988.02;631957;225;24849;-73
2020/12/14 06:47:46;;;;;;;9.50;7.33;;;;;;;3.54;100.00;99986.08;643306;221;24795;-73
2020/12/14 06:50:26;;;;;;;9.77;7.57;;;;;;;3.55;100.00;99985.62;627505;225;25122;-72
2020/12/14 06:52:53;;;;;;;10.70;8.50;;;;;;;3.73;100.00;99979.66;626490;226;24858;-74
2020/12/14 06:55:48;;;;;;;11.87;8.60;;;;;;;3.73;100.00;99987.37;642883;221;24836;-73
2020/12/14 06:58:27;;;;;;;10.73;7.87;;;;;;;3.61;100.00;99995.47;639918;223;24814;-72
2020/12/14 07:00:54;;;;;;;12.20;8.07;;;;;;;3.56;100.00;100002.69;640946;221;24837;-73
2020/12/14 07:03:37;;;;;;;11.50;7.70;;;;;;;3.48;100.00;99999.34;641168;220;25284;-72
2020/12/14 07:06:05;;;;;;;12.80;8.37;;;;;;;3.55;100.00;100007.01;646007;221;24839;-73
2020/12/14 07:08:38;;;;;;;11.43;7.13;;;;;;;3.58;100.00;100006.79;643925;221;26918;-73
2020/12/14 07:11:15;;;;;;;8.83;6.83;;;;;;;3.56;100.00;100011.22;642901;221;24818;-72
2020/12/14 07:13:43;;;;;;;8.53;6.53;;;;;;;3.57;100.00;100010.30;632479;225;24949;-72
2020/12/14 07:16:11;;;;;;;10.23;8.05;;;;;;;4.09;100.00;100010.52;639981;221;32551;-73
2020/12/14 07:18:39;;;;;;;11.77;8.40;;;;;;;3.79;100.00;100018.61;629104;226;23714;-74
2020/12/14 07:21:11;;;;;;;10.03;7.67;;;;;;;3.75;100.00;100012.51;629402;226;24912;-73
2020/12/14 07:23:39;;;;;;;8.10;6.80;;;;;;;3.80;100.00;100013.00;639535;222;24822;-73
2020/12/14 07:26:07;;;;;;;10.53;7.93;;;;;;;3.66;100.00;100011.85;642342;222;24801;-71
2020/12/14 07:28:37;;;;;;;10.67;7.80;;;;;;;3.75;100.00;100012.51;639742;220;24804;-73
2020/12/14 07:31:07;;;;;;;9.63;7.00;;;;;;;3.78;100.00;100017.44;639695;221;24804;-73
2020/12/14 07:33:34;;;;;;;9.00;7.80;;;;;;;3.74;100.00;100021.16;642029;222;24797;-73
2020/12/14 07:36:04;;;;;;;8.53;6.90;;;;;;;3.94;100.00;100014.61;643339;221;25928;-73
2020/12/14 07:38:32;;;;;;;8.90;7.00;;;;;;;3.91;100.00;100016.94;627981;225;28043;-73
2020/12/14 07:41:07;;;;;;;11.77;7.57;;;;;;;3.81;100.00;100019.81;638588;225;24802;-73
2020/12/14 07:43:41;;;;;;;9.00;6.40;;;;;;;3.71;100.00;100022.66;638063;225;25319;-73
2020/12/14 07:46:18;;;;;;;9.33;6.73;;;;;;;3.70;100.00;100030.84;630410;226;26923;-74
2020/12/14 07:48:56;;;;;;;9.93;5.70;;;;;;;3.73;100.00;100028.52;640259;221;24810;-74
2020/12/14 07:51:25;;;;;;;9.08;6.60;;;;;;;4.28;100.00;100031.89;623879;225;32850;-75
2020/12/14 07:53:53;;;;;;;8.37;6.40;;;;;;;4.20;100.00;100034.64;629132;225;23741;-75
2020/12/14 07:56:21;;;;;;;6.90;6.07;;;;;;;4.15;100.00;100040.95;635436;226;27001;-72
2020/12/14 07:58:49;;;;;;;6.67;5.60;;;;;;;4.22;100.00;100043.08;628178;226;25163;-73
2020/12/14 08:01:17;;;;;;;6.33;5.53;;;;;;;4.25;100.00;100036.45;639989;224;24863;-76
2020/12/14 08:03:45;;;;;;;7.03;5.40;;;;;;;4.76;100.00;100040.39;621941;228;32813;-75
2020/12/14 08:06:15;;;;;;;6.60;5.90;;;;;;;4.38;100.00;100043.66;640113;221;26833;-73
2020/12/14 08:08:43;;;;;;;6.97;5.10;;;;;;;4.38;100.00;100039.33;628886;224;24984;-72
2020/12/14 08:11:11;;;;;;;7.65;6.35;;;;;;;4.96;100.00;100041.52;625186;226;32819;-73
2020/12/14 08:13:39;;;;;;;7.17;5.63;;;;;;;4.46;100.00;100034.43;648002;220;23867;-73
2020/12/14 08:16:07;;;;;;;5.30;4.70;;;;;;;4.59;100.00;100038.70;648493;221;29025;-73
2020/12/14 08:18:35;;;;;;;6.17;5.67;;;;;;;4.69;100.00;100028.91;644966;221;24781;-74
2020/12/14 08:21:03;;;;;;;6.13;5.50;;;;;;;4.79;100.00;100033.39;630668;225;24857;-74
2020/12/14 08:23:30;;;;;;;6.75;5.75;;;;;;;5.25;99.66;100038.05;641555;220;32947;-74
2020/12/14 08:25:58;;;;;;;7.13;5.53;;;;;;;4.99;100.00;100037.89;640309;222;23727;-73
2020/12/14 08:28:28;;;;;;;6.00;5.40;;;;;;;4.89;100.00;100042.07;628970;226;24848;-73
2020/12/14 08:30:56;;;;;;;6.70;5.47;;;;;;;5.01;100.00;100044.56;646622;221;24803;-76
2020/12/14 08:33:24;;;;;;;7.25;6.05;;;;;;;5.69;98.89;100041.58;622975;226;33086;-76
2020/12/14 08:35:52;;;;;;;6.93;6.10;;;;;;;5.39;99.39;100044.75;632556;226;23715;-76
2020/12/14 08:38:20;;;;;;;8.33;5.93;;;;;;;5.27;100.00;100049.53;626465;226;24902;-74
2020/12/14 08:40:51;;;;;;;6.07;5.00;;;;;;;5.74;99.40;100042.03;639280;221;32761;-73
2020/12/14 08:43:19;;;;;;;7.80;5.80;;;;;;;6.01;97.10;100040.86;637932;221;32665;-75
2020/12/14 08:45:57;;;;;;;7.28;5.60;;;;;;;5.92;96.84;100039.84;627435;225;33237;-74
2020/12/14 08:48:25;;;;;;;5.75;4.97;;;;;;;6.01;96.63;100039.58;640842;221;32891;-74
2020/12/14 08:51:05;;;;;;;7.33;5.10;;;;;;;5.82;96.12;100037.59;623588;225;35708;-75
2020/12/14 08:53:33;;;;;;;5.13;4.53;;;;;;;5.28;98.47;100042.16;628583;226;24883;-73
2020/12/14 08:56:03;;;;;;;7.03;4.73;;;;;;;5.62;98.23;100037.34;630649;225;24834;-73
2020/12/14 08:58:31;;;;;;;5.80;4.20;;;;;;;5.68;97.71;100037.36;630108;225;24831;-72
2020/12/14 09:01:10;;;;;;;6.13;4.50;;;;;;;5.74;98.44;100042.51;632359;222;24855;-73
2020/12/14 09:03:58;;;;;;;5.97;4.10;;;;;;;5.68;98.76;100051.55;640103;222;24796;-73
2020/12/14 09:06:27;;;;;;;5.30;4.50;;;;;;;5.88;98.17;100052.11;627993;225;24845;-72
2020/12/14 09:09:00;;;;;;;5.23;4.73;;;;;;;5.77;97.63;100050.85;641621;220;24764;-73
2020/12/14 09:11:28;;;;;;;7.17;4.37;;;;;;;5.92;97.57;100054.86;636788;223;24849;-73
2020/12/14 09:13:57;;;;;;;6.30;3.77;;;;;;;5.79;97.54;100058.47;640779;221;24830;-73
2020/12/14 09:16:25;;;;;;;4.23;3.83;;;;;;;5.80;98.70;100054.48;645371;221;24774;-73
2020/12/14 09:18:53;;;;;;;4.90;3.80;;;;;;;5.91;98.15;100057.09;633896;224;24895;-73
2020/12/14 09:21:21;;;;;;;4.83;3.90;;;;;;;5.83;97.75;100050.37;632791;225;27006;-73
2020/12/14 09:24:10;;;;;;;5.40;4.40;;;;;;;5.96;96.96;100060.59;641133;220;24802;-73
2020/12/14 09:26:38;;;;;;;8.30;5.60;;;;;;;6.11;96.62;100054.23;631709;225;24978;-73
2020/12/14 09:29:06;;;;;;;6.40;4.58;;;;;;;6.56;95.84;100054.09;634542;220;32667;-73
2020/12/14 09:31:34;;;;;;;5.27;4.73;;;;;;;6.49;95.22;100061.53;630913;225;23706;-73
2020/12/14 09:34:02;;;;;;;6.13;4.40;;;;;;;6.60;95.53;100054.19;645312;221;24805;-73
2020/12/14 09:36:30;;;;;;;6.00;4.37;;;;;;;6.68;95.46;100064.73;631727;225;24849;-76
2020/12/14 09:38:58;;;;;;;5.27;4.33;;;;;;;6.79;95.43;100066.46;644051;221;24811;-76
2020/12/14 09:41:29;;;;;;;5.60;4.47;;;;;;;6.75;95.28;100070.22;641274;221;24798;-75
2020/12/14 09:43:57;;;;;;;5.83;4.53;;;;;;;6.89;94.98;100072.97;644119;221;24821;-75
2020/12/14 09:46:26;;;;;;;6.03;4.43;;;;;;;6.96;94.85;100066.38;627274;225;24848;-75
2020/12/14 09:48:54;;;;;;;5.30;4.70;;;;;;;7.07;94.53;100060.67;643057;221;24893;-76
2020/12/14 09:51:22;;;;;;;4.47;4.07;;;;;;;6.98;93.84;100062.71;641807;222;24858;-76
2020/12/14 09:53:50;;;;;;;7.80;5.90;;;;;;;6.90;95.02;100072.03;631779;225;24858;-73
2020/12/14 09:56:18;;;;;;;4.70;3.50;;;;;;;6.92;94.75;100075.33;646019;221;25055;-75
2020/12/14 09:58:46;;;;;;;6.47;4.40;;;;;;;7.01;94.88;100061.63;645597;221;24850;-73
2020/12/14 10:01:14;;;;;;;4.77;3.77;;;;;;;7.38;94.42;100058.13;630844;226;24848;-73
2020/12/14 10:03:42;;;;;;;4.60;4.03;;;;;;;7.48;92.64;100048.65;626208;226;24858;-75
2020/12/14 10:06:11;;;;;;;4.90;4.40;;;;;;;7.43;92.48;100052.08;627956;227;24876;-75
2020/12/14 10:08:39;;;;;;;3.90;3.30;;;;;;;7.33;92.46;100056.41;630166;226;32262;-75
2020/12/14 10:11:07;;;;;;;3.93;3.43;;;;;;;7.61;92.47;100061.37;630612;226;24845;-74
2020/12/14 10:13:35;;;;;;;3.90;3.50;;;;;;;7.66;92.34;100050.96;643058;221;24812;-75
2020/12/14 10:16:03;;;;;;;5.90;3.60;;;;;;;7.74;91.36;100046.41;640193;221;24792;-73
2020/12/14 10:18:31;;;;;;;3.30;3.00;;;;;;;7.86;91.10;100030.30;630228;225;24844;-74
2020/12/14 10:21:00;;;;;;;4.80;3.60;;;;;;;7.65;91.02;100038.97;644394;220;28029;-75
2020/12/14 10:23:28;;;;;;;3.67;3.37;;;;;;;7.42;91.85;100049.14;642159;221;24890;-75
2020/12/14 10:25:55;;;;;;;4.13;3.43;;;;;;;7.99;90.74;100047.72;639731;221;32762;-76
2020/12/14 10:28:23;;;;;;;5.13;3.30;;;;;;;8.41;90.06;100039.77;622268;226;32866;-76
2020/12/14 10:30:51;;;;;;;5.57;4.00;;;;;;;8.46;87.21;100031.95;623802;225;32921;-76
2020/12/14 10:33:19;;;;;;;6.70;3.90;;;;;;;8.73;87.22;100026.08;622756;225;32749;-76
2020/12/14 10:35:48;;;;;;;6.40;4.80;;;;;;;8.91;85.19;100017.92;637129;221;32674;-76
2020/12/14 10:38:15;;;;;;;6.30;4.80;;;;;;;8.23;87.09;100021.46;626800;226;24937;-76
2020/12/14 10:40:43;;;;;;;7.60;4.10;;;;;;;8.48;87.65;100024.86;629051;225;24844;-76
2020/12/14 10:43:11;;;;;;;7.13;4.80;;;;;;;8.43;87.33;100018.42;640486;221;24810;-75
2020/12/14 10:45:39;;;;;;;5.47;4.50;;;;;;;8.31;87.30;100008.66;640650;221;25055;-76
2020/12/14 10:48:07;;;;;;;7.73;4.73;;;;;;;8.49;85.42;100001.05;621787;226;43471;-75
2020/12/14 10:50:38;;;;;;;5.70;4.20;;;;;;;8.22;87.35;100008.17;641490;220;25861;-73
2020/12/14 10:53:03;;;;;;;5.70;4.23;;;;;;;8.16;86.69;100003.03;629768;225;28100;-72
2020/12/14 10:55:31;;;;;;;5.93;3.90;;;;;;;8.26;86.69;100003.87;643388;221;24902;-74
2020/12/14 10:57:59;;;;;;;4.60;4.07;;;;;;;8.38;87.44;100007.66;642201;221;24808;-73
2020/12/14 11:00:27;;;;;;;7.87;4.67;;;;;;;8.70;85.63;100007.36;643986;220;27033;-73
2020/12/14 11:02:57;;;;;;;6.23;4.27;;;;;;;8.53;86.74;100012.30;630701;225;24929;-73
2020/12/14 11:05:24;;;;;;;6.70;4.43;;;;;;;8.70;85.75;100010.78;642769;221;24820;-72
2020/12/14 11:07:53;;;;;;;5.40;4.50;;;;;;;8.42;85.92;100011.13;629377;225;24855;-72
2020/12/14 11:10:19;;;;;;;5.63;4.17;;;;;;;8.60;87.36;100022.47;629453;226;24867;-74
2020/12/14 11:12:47;;;;;;;9.50;4.37;;;;;;;8.60;85.22;100012.58;639468;221;26924;-73
2020/12/14 11:15:15;;;;;;;7.83;4.80;;;;;;;8.54;86.09;100011.81;638039;224;24815;-73
2020/12/14 11:17:43;;;;;;;4.77;3.87;;;;;;;7.98;87.11;100008.05;640385;220;24823;-73
2020/12/14 11:20:12;;;;;;;7.10;4.70;;;;;;;8.24;86.03;100015.33;642865;222;24832;-73
2020/12/14 11:22:39;;;;;;;7.53;4.30;;;;;;;8.52;86.18;100008.06;628610;225;28070;-72
2020/12/14 11:25:07;;;;;;;8.97;3.90;;;;;;;8.67;84.62;100001.98;637354;225;24825;-73
2020/12/14 11:27:35;;;;;;;6.83;4.43;;;;;;;8.42;86.22;100003.83;637060;224;24808;-73
2020/12/14 11:30:03;;;;;;;6.80;5.30;;;;;;;8.56;86.83;100013.31;626108;225;24872;-73
2020/12/14 11:32:31;;;;;;;7.47;4.60;;;;;;;8.68;84.62;99995.84;621610;225;38686;-73
2020/12/14 11:34:59;;;;;;;5.70;4.87;;;;;;;9.01;84.65;99995.88;635134;225;25994;-73
2020/12/14 11:37:26;;;;;;;6.77;4.03;;;;;;;8.78;84.30;99982.39;636796;221;27010;-76